Time;durP1;ratioP1;P1;durP2;ratioP2;P2;SDS_P1;SDS_P2;PMS_P1;PMS_P2;Temp;Humidity;BMP_temperature;BMP_pressure;BME280_temperature;BME280_humidity;BME280_pressure;Samples;Min_cycle;Max_cycle;Signal;HPM_P1;HPM_P2
2022/11/22 00:00:34;;;;;;;25.42;16.83;;;3.60;99.90;;;;;;5058841;28;20048;-78
2022/11/22 00:03:00;;;;;;;25.20;17.42;;;3.60;99.90;;;;;;5062475;28;20049;-79
2022/11/22 00:05:25;;;;;;;25.17;17.35;;;3.60;99.90;;;;;;5060006;28;20051;-79
2022/11/22 00:07:51;;;;;;;30.92;19.13;;;3.60;99.90;;;;;;5094073;27;20045;-81
2022/11/22 00:10:17;;;;;;;25.80;18.10;;;4.20;99.90;;;;;;5061421;28;20036;-80
2022/11/22 00:12:43;;;;;;;26.13;18.05;;;3.70;99.90;;;;;;5066022;28;20052;-80
2022/11/22 00:15:10;;;;;;;24.80;17.58;;;4.00;99.90;;;;;;5060765;28;20045;-79
2022/11/22 00:17:36;;;;;;;25.38;18.80;;;3.60;99.90;;;;;;5062836;28;20055;-80
2022/11/22 00:20:04;;;;;;;26.15;18.67;;;3.80;99.90;;;;;;5064966;28;20044;-79
2022/11/22 00:22:31;;;;;;;21.42;17.55;;;3.60;99.90;;;;;;5068603;28;20051;-78
2022/11/22 00:24:56;;;;;;;24.80;17.35;;;3.60;99.90;;;;;;5065919;28;20090;-79
2022/11/22 00:27:22;;;;;;;26.17;17.95;;;3.60;99.90;;;;;;5064670;28;20567;-79
2022/11/22 00:29:48;;;;;;;28.50;18.90;;;3.90;99.90;;;;;;5071046;28;20637;-78
2022/11/22 00:32:14;;;;;;;24.02;17.73;;;3.50;99.90;;;;;;5062888;28;20051;-78
2022/11/22 00:34:39;;;;;;;27.52;18.77;;;3.50;99.90;;;;;;5064377;28;20093;-83
2022/11/22 00:37:05;;;;;;;25.70;17.98;;;3.40;99.90;;;;;;5065543;28;20187;-79
2022/11/22 00:39:31;;;;;;;29.42;19.80;;;3.70;99.90;;;;;;5063705;28;20182;-79
2022/11/22 00:41:57;;;;;;;30.38;18.92;;;3.80;99.90;;;;;;5058623;28;20091;-78
2022/11/22 00:44:22;;;;;;;28.50;20.38;;;3.60;99.90;;;;;;5064424;28;20044;-78
2022/11/22 00:46:48;;;;;;;27.33;19.27;;;3.40;99.90;;;;;;5060431;28;20553;-78
2022/11/22 00:49:14;;;;;;;32.08;20.25;;;3.40;99.90;;;;;;5063803;28;20084;-80
2022/11/22 00:51:39;;;;;;;28.20;19.33;;;3.40;99.90;;;;;;5065530;28;20135;-79
2022/11/22 00:54:05;;;;;;;29.08;20.48;;;3.40;99.90;;;;;;5056599;28;20282;-79
2022/11/22 00:56:32;;;;;;;32.05;20.08;;;3.40;99.90;;;;;;5059160;28;20093;-79
2022/11/22 00:58:57;;;;;;;29.15;20.80;;;3.40;99.90;;;;;;5056593;28;20044;-78
2022/11/22 01:01:23;;;;;;;30.08;20.33;;;3.40;99.90;;;;;;5059807;28;20044;-79
2022/11/22 01:03:49;;;;;;;27.85;19.50;;;3.40;99.90;;;;;;5055651;28;20090;-79
2022/11/22 01:06:15;;;;;;;28.70;19.85;;;4.10;99.90;;;;;;5053841;28;20786;-79
2022/11/22 01:08:40;;;;;;;30.73;19.98;;;3.40;99.90;;;;;;5060072;28;20887;-78
2022/11/22 01:11:06;;;;;;;32.88;21.67;;;3.40;99.90;;;;;;5058707;28;20066;-78
2022/11/22 01:13:32;;;;;;;34.80;21.35;;;3.40;99.90;;;;;;5066745;28;20084;-78
2022/11/22 01:16:05;;;;;;;32.03;21.10;;;3.40;99.90;;;;;;5058110;28;20091;-79
2022/11/22 01:18:31;;;;;;;31.53;21.90;;;3.40;99.90;;;;;;5063745;28;20142;-78
2022/11/22 01:20:57;;;;;;;34.05;21.92;;;3.40;99.90;;;;;;5058530;28;20774;-79
2022/11/22 01:23:24;;;;;;;31.92;21.63;;;3.40;99.90;;;;;;5055832;28;20495;-81
2022/11/22 01:25:49;;;;;;;35.25;22.88;;;3.40;99.90;;;;;;5065390;28;20055;-81
2022/11/22 01:28:15;;;;;;;28.38;20.75;;;3.40;99.90;;;;;;5055813;28;20078;-80
2022/11/22 01:30:42;;;;;;;32.28;21.50;;;3.40;99.90;;;;;;5048207;28;20048;-81
2022/11/22 01:33:09;;;;;;;36.38;23.10;;;3.40;99.90;;;;;;5056641;28;20051;-79
2022/11/22 01:35:34;;;;;;;32.38;22.35;;;4.10;99.90;;;;;;5058217;28;20102;-81
2022/11/22 01:38:00;;;;;;;34.53;23.75;;;3.80;99.90;;;;;;5065507;28;20071;-81
2022/11/22 01:40:26;;;;;;;33.47;23.05;;;3.40;99.90;;;;;;5063479;28;20036;-80
2022/11/22 01:42:57;;;;;;;42.05;23.95;;;3.70;99.90;;;;;;5056844;28;20095;-81
2022/11/22 01:45:29;;;;;;;32.97;22.08;;;4.00;99.90;;;;;;5056824;28;20721;-82
2022/11/22 01:48:05;;;;;;;32.55;21.40;;;3.50;99.90;;;;;;5055450;28;20784;-81
2022/11/22 01:50:34;;;;;;;30.13;22.02;;;3.50;99.90;;;;;;5057714;28;20129;-82
2022/11/22 01:53:04;;;;;;;32.95;22.90;;;3.50;99.90;;;;;;5058242;28;20048;-79
2022/11/22 01:55:30;;;;;;;33.92;24.20;;;3.50;99.90;;;;;;5057330;28;20056;-81
2022/11/22 01:57:57;;;;;;;34.72;22.05;;;3.50;99.90;;;;;;5056547;28;20048;-81
2022/11/22 02:00:23;;;;;;;35.95;22.75;;;3.50;99.90;;;;;;5057433;28;20052;-80
2022/11/22 02:02:58;;;;;;;32.08;21.67;;;4.20;99.90;;;;;;5055823;28;20103;-81
2022/11/22 02:05:29;;;;;;;31.83;22.63;;;3.70;99.90;;;;;;5059085;28;20051;-82
2022/11/22 02:08:05;;;;;;;31.48;22.67;;;3.50;99.90;;;;;;5056941;28;20050;-81
2022/11/22 02:10:36;;;;;;;35.03;23.73;;;3.80;99.90;;;;;;5059991;28;20639;-80
2022/11/22 02:13:03;;;;;;;33.88;23.30;;;3.80;99.90;;;;;;5056089;28;20795;-81
2022/11/22 02:15:29;;;;;;;32.75;21.48;;;3.80;99.90;;;;;;5059384;28;20052;-79
2022/11/22 02:17:58;;;;;;;31.85;22.13;;;3.90;99.90;;;;;;5056893;28;20045;-80
2022/11/22 02:20:23;;;;;;;34.47;22.77;;;3.50;99.90;;;;;;5054073;28;20058;-80
2022/11/22 02:22:58;;;;;;;32.47;21.20;;;3.50;99.90;;;;;;5056303;28;20064;-80
2022/11/22 02:25:35;;;;;;;31.50;22.90;;;3.50;99.90;;;;;;5056204;28;20113;-80
2022/11/22 02:28:01;;;;;;;34.47;21.73;;;3.50;99.90;;;;;;5056189;28;20056;-80
2022/11/22 02:30:26;;;;;;;33.92;23.48;;;3.60;99.90;;;;;;5056675;28;21308;-79
2022/11/22 02:32:52;;;;;;;28.52;20.27;;;3.60;99.90;;;;;;5056245;28;20087;-79
2022/11/22 02:35:23;;;;;;;36.42;22.88;;;3.90;99.90;;;;;;5056830;28;20326;-78
2022/11/22 02:37:53;;;;;;;31.23;22.00;;;3.60;99.90;;;;;;5057760;28;20044;-79
2022/11/22 02:40:20;;;;;;;34.03;22.58;;;3.60;99.90;;;;;;5055396;28;20044;-78
2022/11/22 02:42:51;;;;;;;36.08;21.92;;;3.60;99.90;;;;;;5051579;28;20060;-78
2022/11/22 02:45:17;;;;;;;32.85;23.60;;;4.30;99.90;;;;;;5063297;28;20048;-78
2022/11/22 02:47:42;;;;;;;35.33;22.83;;;4.20;99.90;;;;;;5060665;28;20052;-79
2022/11/22 02:50:08;;;;;;;32.20;23.90;;;3.60;99.90;;;;;;5094050;27;20120;-79
2022/11/22 02:52:34;;;;;;;30.13;22.33;;;3.60;99.90;;;;;;5064647;28;20917;-79
2022/11/22 02:54:59;;;;;;;35.38;22.02;;;3.70;99.90;;;;;;5062285;28;20056;-78
2022/11/22 02:57:25;;;;;;;31.58;22.17;;;4.10;99.90;;;;;;5061310;28;20777;-79
2022/11/22 02:59:51;;;;;;;34.35;23.85;;;3.60;99.90;;;;;;5066458;28;20851;-79
2022/11/22 03:02:16;;;;;;;34.70;24.10;;;3.60;99.90;;;;;;5059148;28;20376;-79
2022/11/22 03:04:42;;;;;;;34.42;23.77;;;3.70;99.90;;;;;;5071998;28;20536;-79
2022/11/22 03:07:08;;;;;;;33.50;22.83;;;4.50;99.90;;;;;;5062582;28;20080;-80
2022/11/22 03:09:33;;;;;;;32.97;23.63;;;3.70;99.90;;;;;;5065949;28;20055;-78
2022/11/22 03:11:59;;;;;;;29.85;21.88;;;3.70;99.90;;;;;;5078692;28;20120;-80
2022/11/22 03:14:25;;;;;;;36.03;24.90;;;3.70;99.90;;;;;;5105687;27;20187;-80
2022/11/22 03:16:51;;;;;;;34.58;23.00;;;3.70;99.90;;;;;;5070591;28;20055;-80
2022/11/22 03:19:16;;;;;;;32.63;23.27;;;3.80;99.90;;;;;;5060024;28;20055;-80
2022/11/22 03:21:43;;;;;;;33.03;22.63;;;3.70;99.90;;;;;;5066149;28;20199;-80
2022/11/22 03:24:09;;;;;;;31.23;22.17;;;4.20;99.90;;;;;;5064254;28;20049;-80
2022/11/22 03:26:35;;;;;;;35.50;22.63;;;3.80;99.90;;;;;;5073054;28;20079;-80
2022/11/22 03:29:01;;;;;;;35.78;25.35;;;3.80;99.90;;;;;;5065080;28;20412;-79
2022/11/22 03:31:27;;;;;;;34.53;21.58;;;3.80;99.90;;;;;;5057338;28;20047;-79
2022/11/22 03:33:53;;;;;;;31.45;22.15;;;4.20;99.90;;;;;;5060375;28;20049;-80
2022/11/22 03:36:19;;;;;;;36.63;23.33;;;4.30;99.90;;;;;;5063033;28;20124;-80
2022/11/22 03:38:45;;;;;;;31.33;22.33;;;3.90;99.90;;;;;;5058748;28;20671;-79
2022/11/22 03:41:10;;;;;;;32.42;21.50;;;3.60;99.90;;;;;;5056053;28;20040;-80
2022/11/22 03:43:37;;;;;;;31.48;22.35;;;4.90;99.90;;;;;;5061341;28;20055;-81
2022/11/22 03:46:03;;;;;;;29.20;21.10;;;4.10;99.90;;;;;;5065868;28;20446;-79
2022/11/22 03:48:29;;;;;;;34.65;22.25;;;3.90;99.90;;;;;;5062425;28;20055;-80
2022/11/22 03:51:05;;;;;;;29.38;20.73;;;4.00;99.90;;;;;;5063623;28;20048;-79
2022/11/22 03:53:31;;;;;;;29.48;20.60;;;4.00;99.90;;;;;;5063198;28;20237;-80
2022/11/22 03:55:57;;;;;;;32.20;21.98;;;4.00;99.90;;;;;;5069306;28;20040;-79
2022/11/22 03:58:22;;;;;;;31.38;21.33;;;4.00;99.90;;;;;;5063231;28;20074;-80
2022/11/22 04:00:48;;;;;;;29.58;19.85;;;4.00;99.90;;;;;;5057432;28;20048;-79
2022/11/22 04:03:13;;;;;;;32.45;21.45;;;4.00;99.90;;;;;;5060018;28;20048;-79
2022/11/22 04:05:39;;;;;;;30.17;21.02;;;4.50;99.90;;;;;;5057624;28;20048;-79
2022/11/22 04:08:05;;;;;;;30.50;21.20;;;4.00;99.90;;;;;;5060935;28;20055;-82
2022/11/22 04:10:30;;;;;;;25.58;18.40;;;4.70;99.90;;;;;;5059669;28;20123;-81
2022/11/22 04:12:58;;;;;;;30.00;21.42;;;4.40;99.90;;;;;;5059561;28;20559;-81
2022/11/22 04:15:24;;;;;;;31.02;20.73;;;4.30;99.90;;;;;;5060715;28;20043;-81
2022/11/22 04:17:50;;;;;;;27.83;19.95;;;4.10;99.90;;;;;;5058347;28;20137;-79
2022/11/22 04:23:15;;;;;;;29.55;20.65;;;4.10;99.90;;;;;;5060535;28;20057;-81
2022/11/22 04:25:44;;;;;;;28.45;18.95;;;4.20;99.90;;;;;;5060088;28;20052;-82
2022/11/22 04:28:11;;;;;;;27.48;19.00;;;4.50;99.90;;;;;;5059116;28;20076;-80
2022/11/22 04:33:22;;;;;;;26.45;18.10;;;4.20;99.90;;;;;;5053988;28;20125;-81
2022/11/22 04:35:48;;;;;;;25.88;18.33;;;4.20;99.90;;;;;;5059714;28;20040;-82
2022/11/22 04:38:15;;;;;;;25.75;18.40;;;4.30;99.90;;;;;;5059637;28;20609;-82
2022/11/22 04:40:41;;;;;;;26.23;18.48;;;4.30;99.90;;;;;;5058026;28;20048;-82
2022/11/22 04:45:57;;;;;;;28.17;18.00;;;4.30;99.90;;;;;;5069021;28;20055;-80
2022/11/22 04:48:23;;;;;;;23.90;17.20;;;4.60;99.90;;;;;;5058511;28;20048;-82
2022/11/22 04:53:32;;;;;;;24.35;17.90;;;4.40;99.90;;;;;;5062783;28;20056;-77
2022/11/22 04:55:58;;;;;;;27.35;18.42;;;5.20;99.90;;;;;;5052000;28;20040;-81
2022/11/22 04:58:24;;;;;;;24.35;18.23;;;4.40;99.90;;;;;;5064719;28;20052;-80
2022/11/22 05:00:50;;;;;;;25.33;17.45;;;4.40;99.90;;;;;;5059318;28;20060;-83
2022/11/22 05:03:16;;;;;;;26.83;17.58;;;4.50;99.90;;;;;;5064177;28;20806;-82
2022/11/22 05:05:43;;;;;;;27.45;18.58;;;4.50;99.90;;;;;;5057844;28;20044;-80
2022/11/22 05:08:09;;;;;;;23.50;16.85;;;4.50;99.90;;;;;;5059142;28;20143;-82
2022/11/22 05:13:24;;;;;;;28.55;16.63;;;4.80;99.90;;;;;;5065079;28;20063;-83
2022/11/22 05:15:50;;;;;;;24.60;16.95;;;4.50;99.90;;;;;;5064820;28;20055;-84
2022/11/22 05:18:17;;;;;;;26.38;16.90;;;4.50;99.90;;;;;;5063657;28;20044;-80
2022/11/22 05:20:43;;;;;;;27.67;18.65;;;4.50;99.90;;;;;;5068830;28;20052;-80
2022/11/22 05:25:53;;;;;;;22.20;16.73;;;4.60;99.90;;;;;;5065916;28;20052;-81
2022/11/22 05:28:19;;;;;;;25.92;18.10;;;4.60;99.90;;;;;;5067193;28;20956;-81
2022/11/22 05:30:45;;;;;;;22.42;16.40;;;4.60;99.90;;;;;;5059316;28;20048;-82
2022/11/22 05:33:10;;;;;;;27.60;17.92;;;4.70;99.90;;;;;;5062459;28;20576;-81
2022/11/22 05:35:36;;;;;;;23.50;17.10;;;4.60;99.90;;;;;;5058754;28;20462;-82
2022/11/22 05:38:02;;;;;;;24.08;17.65;;;4.70;99.90;;;;;;5064502;28;20048;-79
2022/11/22 05:40:28;;;;;;;23.60;16.63;;;4.70;99.90;;;;;;5057184;28;20044;-82
2022/11/22 05:42:53;;;;;;;23.65;15.38;;;5.20;99.90;;;;;;5060628;28;20748;-83
2022/11/22 05:45:19;;;;;;;24.35;17.55;;;4.70;99.90;;;;;;5059223;28;20053;-82
2022/11/22 05:47:45;;;;;;;27.88;17.13;;;4.80;99.90;;;;;;5055784;28;20543;-81
2022/11/22 05:50:11;;;;;;;24.52;16.85;;;5.10;99.90;;;;;;5061692;28;20044;-81
2022/11/22 05:52:37;;;;;;;25.65;17.17;;;4.70;99.90;;;;;;5061844;28;20052;-82
2022/11/22 05:55:03;;;;;;;22.75;16.00;;;4.80;99.90;;;;;;5057814;28;20161;-82
2022/11/22 05:57:30;;;;;;;22.25;16.80;;;4.80;99.90;;;;;;5060862;28;20044;-82
2022/11/22 05:59:56;;;;;;;22.80;16.05;;;4.80;99.90;;;;;;5060910;28;20055;-82
2022/11/22 06:02:22;;;;;;;21.77;15.05;;;5.60;99.90;;;;;;5071547;28;20044;-82
2022/11/22 06:04:47;;;;;;;25.05;17.65;;;4.80;99.90;;;;;;5058556;28;20104;-82
2022/11/22 06:07:13;;;;;;;23.05;16.30;;;4.90;99.90;;;;;;5049175;28;20080;-82
2022/11/22 06:09:39;;;;;;;23.60;17.65;;;4.90;99.90;;;;;;5063604;28;20131;-82
2022/11/22 06:12:04;;;;;;;23.00;15.73;;;4.90;99.90;;;;;;5061776;28;20429;-81
2022/11/22 06:14:30;;;;;;;20.65;15.48;;;4.90;99.90;;;;;;5061704;28;20567;-82
2022/11/22 06:16:56;;;;;;;21.73;15.77;;;4.90;99.90;;;;;;5059238;28;20083;-83
2022/11/22 06:19:21;;;;;;;22.92;16.42;;;5.50;99.90;;;;;;5062459;28;20130;-83
2022/11/22 06:21:47;;;;;;;24.33;16.75;;;4.90;99.90;;;;;;5069077;28;20088;-81
2022/11/22 06:24:13;;;;;;;21.55;17.00;;;4.90;99.90;;;;;;5097577;27;20064;-82
2022/11/22 06:26:38;;;;;;;21.50;14.85;;;5.00;99.90;;;;;;5073031;28;20060;-83
2022/11/22 06:29:04;;;;;;;22.33;15.82;;;5.00;99.90;;;;;;5072003;28;20059;-80
2022/11/22 06:31:30;;;;;;;23.83;16.52;;;5.00;99.90;;;;;;5076188;28;20036;-81
2022/11/22 06:34:00;;;;;;;22.80;16.83;;;5.80;99.90;;;;;;5072504;28;20936;-80
2022/11/22 06:36:28;;;;;;;18.77;14.27;;;5.00;99.90;;;;;;5068796;28;20093;-82
2022/11/22 06:38:54;;;;;;;20.80;13.88;;;5.80;99.90;;;;;;5077614;28;20091;-82
2022/11/22 06:41:26;;;;;;;18.05;14.60;;;5.10;99.90;;;;;;5074930;28;20055;-84
2022/11/22 06:43:53;;;;;;;18.42;14.38;;;5.10;99.90;;;;;;5074279;28;20151;-80
2022/11/22 06:46:23;;;;;;;21.75;14.95;;;5.10;99.90;;;;;;5072569;28;20058;-82
2022/11/22 06:48:49;;;;;;;19.77;13.65;;;5.30;99.90;;;;;;5073734;28;20044;-82
2022/11/22 06:51:20;;;;;;;22.02;14.57;;;5.10;99.90;;;;;;5068249;28;20048;-80
2022/11/22 06:53:47;;;;;;;22.20;15.02;;;5.20;99.90;;;;;;5068091;28;20048;-81
2022/11/22 06:56:19;;;;;;;22.67;15.82;;;5.20;99.90;;;;;;5070449;28;20518;-82
2022/11/22 06:58:46;;;;;;;14.00;12.13;;;5.20;99.90;;;;;;5107586;27;20056;-81
2022/11/22 07:01:14;;;;;;;20.92;14.68;;;5.20;99.90;;;;;;5069343;28;20578;-82
2022/11/22 07:03:41;;;;;;;25.70;14.60;;;5.30;99.90;;;;;;5071863;28;20036;-83
2022/11/22 07:06:08;;;;;;;20.45;13.68;;;5.20;99.90;;;;;;5078398;28;20039;-80
2022/11/22 07:08:35;;;;;;;19.30;13.85;;;5.20;99.90;;;;;;5071538;28;20052;-81
2022/11/22 07:11:13;;;;;;;20.60;13.63;;;5.50;99.90;;;;;;5074820;28;20039;-79
2022/11/22 07:13:40;;;;;;;22.88;15.73;;;5.30;99.90;;;;;;5074263;28;20520;-83
2022/11/22 07:16:07;;;;;;;17.60;13.98;;;5.30;99.90;;;;;;5072681;28;20153;-82
2022/11/22 07:18:34;;;;;;;22.25;14.32;;;5.40;99.90;;;;;;5068455;28;20048;-82
2022/11/22 07:21:04;;;;;;;19.23;14.13;;;5.40;99.90;;;;;;5076043;28;20086;-82
2022/11/22 07:23:30;;;;;;;19.60;14.27;;;5.40;99.90;;;;;;5071919;28;20136;-82
2022/11/22 07:25:56;;;;;;;18.50;13.07;;;5.90;99.90;;;;;;5070009;28;21114;-82
2022/11/22 07:28:22;;;;;;;17.15;12.75;;;5.40;99.90;;;;;;5069660;28;20155;-82
2022/11/22 07:30:48;;;;;;;17.25;13.18;;;5.50;99.90;;;;;;5072461;28;20159;-81
2022/11/22 07:33:14;;;;;;;20.80;14.13;;;5.50;99.90;;;;;;5064145;28;20044;-79
2022/11/22 07:35:39;;;;;;;23.73;15.15;;;5.50;99.90;;;;;;5064704;28;20084;-82
2022/11/22 07:38:05;;;;;;;26.48;19.05;;;5.50;99.90;;;;;;5060082;28;20044;-83
2022/11/22 07:40:31;;;;;;;41.22;27.83;;;5.60;99.90;;;;;;5093874;27;20147;-82
2022/11/22 07:42:56;;;;;;;53.22;34.88;;;5.60;99.90;;;;;;5061863;28;20048;-83
2022/11/22 07:45:22;;;;;;;42.40;30.10;;;5.70;99.90;;;;;;5098382;27;20082;-81
2022/11/22 07:47:48;;;;;;;37.13;25.52;;;6.30;99.90;;;;;;5075488;28;20052;-82
2022/11/22 07:50:14;;;;;;;26.42;18.80;;;5.90;99.90;;;;;;5071104;28;20051;-80
2022/11/22 07:52:40;;;;;;;19.30;14.88;;;5.70;99.90;;;;;;5074462;28;20260;-80
2022/11/22 07:55:06;;;;;;;22.52;13.98;;;5.80;99.90;;;;;;5059665;28;20562;-83
2022/11/22 07:57:32;;;;;;;20.27;12.93;;;5.80;99.90;;;;;;5059253;28;20484;-81
2022/11/22 07:59:58;;;;;;;26.50;13.65;;;5.90;99.90;;;;;;5057570;28;20058;-82
2022/11/22 08:02:24;;;;;;;16.58;10.18;;;5.90;99.90;;;;;;5059153;28;20441;-80
2022/11/22 08:04:50;;;;;;;15.68;8.15;;;6.00;99.90;;;;;;5062394;28;20124;-80
2022/11/22 08:07:16;;;;;;;16.13;9.20;;;6.00;99.90;;;;;;5082799;28;20047;-77
2022/11/22 08:09:42;;;;;;;13.60;8.23;;;6.10;99.90;;;;;;5070219;28;20052;-80
2022/11/22 08:12:08;;;;;;;13.55;8.38;;;6.10;99.90;;;;;;5067977;28;20158;-80
2022/11/22 08:14:34;;;;;;;16.52;7.15;;;6.40;99.90;;;;;;5067248;28;20057;-78
2022/11/22 08:17:00;;;;;;;16.52;7.15;;;6.20;99.90;;;;;;5069771;28;20044;-80
2022/11/22 08:19:26;;;;;;;14.80;7.35;;;6.20;99.90;;;;;;5073001;28;20052;-80
2022/11/22 08:21:52;;;;;;;13.20;6.55;;;6.20;99.90;;;;;;5068424;28;20052;-81
2022/11/22 08:24:18;;;;;;;16.23;7.30;;;6.30;99.90;;;;;;5070652;28;20474;-81
2022/11/22 08:26:44;;;;;;;15.07;7.03;;;6.30;99.90;;;;;;5065466;28;20512;-79
2022/11/22 08:29:11;;;;;;;9.18;5.80;;;6.30;99.90;;;;;;5072836;28;20465;-79
2022/11/22 08:31:38;;;;;;;11.15;6.60;;;6.40;99.90;;;;;;5064284;28;20044;-82
2022/11/22 08:34:04;;;;;;;13.38;7.00;;;6.40;99.90;;;;;;5063481;28;20087;-82
2022/11/22 08:36:30;;;;;;;9.88;5.95;;;6.40;99.90;;;;;;5068140;28;20073;-80
2022/11/22 08:38:56;;;;;;;12.15;5.63;;;6.40;99.90;;;;;;5057302;28;20044;-80
2022/11/22 08:41:22;;;;;;;8.05;5.65;;;6.40;99.90;;;;;;5054494;28;20041;-80
2022/11/22 08:43:49;;;;;;;14.48;5.47;;;6.40;99.90;;;;;;5061553;28;20060;-80
2022/11/22 08:46:15;;;;;;;13.85;5.82;;;6.40;99.90;;;;;;5090697;27;20051;-80
2022/11/22 08:48:41;;;;;;;10.30;6.22;;;6.40;99.90;;;;;;5060537;28;20158;-81
2022/11/22 08:51:09;;;;;;;11.57;5.82;;;6.40;99.90;;;;;;5059188;28;20379;-84
2022/11/22 08:53:41;;;;;;;12.77;5.68;;;6.40;99.90;;;;;;5060266;28;20091;-78
2022/11/22 08:56:09;;;;;;;9.32;5.32;;;6.30;99.90;;;;;;5062317;28;20454;-79
2022/11/22 08:58:35;;;;;;;15.38;6.57;;;6.40;99.90;;;;;;5069995;28;20055;-81
2022/11/22 09:01:06;;;;;;;11.38;5.07;;;6.40;99.90;;;;;;5066830;28;20048;-82
2022/11/22 09:03:34;;;;;;;14.32;4.82;;;6.40;99.90;;;;;;5060084;28;20099;-80
2022/11/22 09:06:04;;;;;;;9.23;5.20;;;6.40;99.90;;;;;;5059001;28;20047;-81
2022/11/22 09:08:31;;;;;;;15.93;5.97;;;6.50;99.90;;;;;;5068907;28;20054;-81
2022/11/22 09:11:04;;;;;;;11.27;5.78;;;6.40;99.90;;;;;;5067095;28;20408;-81
2022/11/22 09:13:30;;;;;;;10.45;5.00;;;6.50;99.90;;;;;;5059632;28;20509;-80
2022/11/22 09:16:04;;;;;;;12.25;5.30;;;6.60;99.90;;;;;;5062357;28;20551;-79
2022/11/22 09:18:31;;;;;;;13.50;5.07;;;6.60;99.90;;;;;;5060280;28;20060;-81
2022/11/22 09:21:01;;;;;;;6.80;4.35;;;6.70;99.90;;;;;;5059869;28;20055;-81
2022/11/22 09:23:27;;;;;;;7.57;4.90;;;6.70;99.90;;;;;;5065817;28;20044;-81
2022/11/22 09:25:59;;;;;;;9.98;5.75;;;6.80;99.90;;;;;;5061685;28;20048;-81
2022/11/22 09:28:26;;;;;;;13.38;4.45;;;6.80;99.90;;;;;;5066592;28;20070;-83
2022/11/22 09:31:09;;;;;;;10.35;4.60;;;6.90;99.90;;;;;;5065176;28;20060;-82
2022/11/22 09:33:38;;;;;;;6.88;4.03;;;6.80;99.90;;;;;;5070827;28;20481;-82
2022/11/22 09:36:12;;;;;;;10.63;3.78;;;6.90;99.90;;;;;;5057387;28;20076;-82
2022/11/22 09:38:38;;;;;;;7.70;4.00;;;6.90;99.90;;;;;;5056733;28;20088;-81
2022/11/22 09:41:29;;;;;;;6.28;3.65;;;6.90;99.90;;;;;;5060231;28;20054;-82
2022/11/22 09:44:29;;;;;;;8.63;3.90;;;6.90;99.90;;;;;;5060908;28;20053;-82
2022/11/22 09:46:57;;;;;;;11.90;3.55;;;6.90;99.90;;;;;;5054744;28;20045;-79
2022/11/22 09:49:29;;;;;;;8.60;3.60;;;6.80;99.90;;;;;;5059308;28;20044;-81
2022/11/22 09:52:13;;;;;;;12.07;3.50;;;6.90;99.90;;;;;;5050846;28;20095;-80
2022/11/22 09:55:21;;;;;;;12.05;3.80;;;7.00;99.90;;;;;;5063669;28;20051;-81
2022/11/22 09:57:51;;;;;;;7.75;3.58;;;7.00;99.90;;;;;;5040848;28;20056;-81
2022/11/22 10:00:26;;;;;;;7.30;3.15;;;7.00;99.90;;;;;;5050040;28;20083;-74
2022/11/22 10:03:29;;;;;;;5.55;3.40;;;7.30;99.90;;;;;;5059056;28;20489;-84
2022/11/22 10:06:00;;;;;;;9.30;3.10;;;7.00;99.90;;;;;;5059669;28;20048;-84
2022/11/22 10:08:46;;;;;;;7.95;4.00;;;7.20;99.90;;;;;;5059500;28;20875;-81
2022/11/22 10:11:36;;;;;;;5.93;2.88;;;7.40;99.90;;;;;;5059955;28;20040;-81
2022/11/22 10:14:25;;;;;;;5.85;3.17;;;7.30;99.90;;;;;;5062327;28;20071;-81
2022/11/22 10:17:05;;;;;;;7.75;3.33;;;7.30;99.90;;;;;;5052398;28;20441;-80
2022/11/22 10:19:40;;;;;;;6.55;3.53;;;7.20;99.90;;;;;;5051491;28;20670;-81
2022/11/22 10:22:13;;;;;;;8.25;2.90;;;7.30;99.90;;;;;;5054016;28;20211;-81
2022/11/22 10:24:39;;;;;;;8.93;3.08;;;7.30;99.90;;;;;;5056256;28;20052;-82
2022/11/22 10:27:12;;;;;;;6.70;2.92;;;7.30;99.90;;;;;;5066020;28;20052;-82
2022/11/22 10:30:00;;;;;;;7.28;3.13;;;7.30;99.90;;;;;;5060287;28;20583;-81
2022/11/22 10:32:36;;;;;;;5.40;2.53;;;7.30;99.90;;;;;;5050554;28;20045;-82
2022/11/22 10:35:26;;;;;;;6.75;3.65;;;8.10;99.90;;;;;;5037478;28;20052;-82
2022/11/22 10:38:10;;;;;;;7.03;2.70;;;7.30;99.90;;;;;;5050993;28;20164;-81
2022/11/22 10:40:53;;;;;;;5.00;2.67;;;7.30;99.90;;;;;;5053724;28;20480;-80
2022/11/22 10:43:25;;;;;;;5.53;2.97;;;7.40;99.90;;;;;;5084862;28;20410;-81
2022/11/22 10:45:59;;;;;;;5.32;2.58;;;7.40;99.90;;;;;;5056197;28;20609;-82
2022/11/22 10:48:36;;;;;;;3.55;2.70;;;7.40;99.90;;;;;;5057681;28;20093;-81
2022/11/22 10:51:04;;;;;;;6.13;2.72;;;7.50;99.90;;;;;;5054287;28;20871;-79
2022/11/22 10:53:48;;;;;;;6.18;2.63;;;7.60;99.90;;;;;;5032601;28;20053;-81
2022/11/22 10:56:25;;;;;;;7.05;2.38;;;7.70;99.90;;;;;;5055911;28;20051;-81
2022/11/22 10:58:58;;;;;;;6.18;2.70;;;7.80;99.90;;;;;;5052901;28;20056;-79
2022/11/22 11:01:46;;;;;;;5.43;3.10;;;7.90;99.90;;;;;;5054771;28;20045;-84
2022/11/22 11:04:14;;;;;;;4.63;2.20;;;7.90;99.90;;;;;;5056304;28;20048;-80
2022/11/22 11:06:44;;;;;;;4.35;2.10;;;8.00;99.90;;;;;;5059636;28;20055;-79
2022/11/22 11:09:24;;;;;;;6.28;2.75;;;8.00;99.90;;;;;;5059679;28;20155;-79
2022/11/22 11:11:51;;;;;;;6.18;2.58;;;8.00;99.90;;;;;;5060976;28;20063;-80
2022/11/22 11:14:35;;;;;;;5.63;2.63;;;8.00;99.90;;;;;;5062191;28;20040;-80
2022/11/22 11:17:01;;;;;;;;;;;8.00;99.90;;;;;;5058518;28;20477;-79
2022/11/22 11:19:31;;;;;;;6.88;2.38;;;7.90;99.90;;;;;;5059581;28;19930;-79
2022/11/22 11:22:06;;;;;;;7.35;2.22;;;8.00;99.90;;;;;;5047391;28;20079;-79
2022/11/22 11:24:33;;;;;;;8.00;2.55;;;8.00;99.90;;;;;;5058121;28;20192;-79
2022/11/22 11:26:59;;;;;;;4.88;2.40;;;8.00;99.90;;;;;;5096881;27;20064;-79
2022/11/22 11:29:25;;;;;;;8.60;2.30;;;8.00;99.90;;;;;;5063622;28;20056;-79
2022/11/22 11:32:08;;;;;;;8.85;2.53;;;8.00;99.90;;;;;;5059721;28;20129;-79
2022/11/22 11:34:35;;;;;;;5.18;2.20;;;8.00;99.90;;;;;;5061067;28;20048;-79
2022/11/22 11:37:02;;;;;;;7.40;1.95;;;8.10;99.90;;;;;;5068483;28;20994;-80
2022/11/22 11:39:29;;;;;;;4.68;2.75;;;8.10;99.90;;;;;;5060628;28;20594;-80
2022/11/22 11:41:55;;;;;;;3.25;2.58;;;8.10;99.90;;;;;;5060685;28;20508;-80
2022/11/22 11:44:33;;;;;;;4.28;1.88;;;8.00;99.90;;;;;;5061248;28;20045;-79
2022/11/22 11:46:59;;;;;;;6.47;2.13;;;8.10;99.90;;;;;;5061128;28;20056;-79
2022/11/22 11:49:33;;;;;;;4.07;2.30;;;8.10;99.90;;;;;;5059532;28;20215;-80
2022/11/22 11:52:00;;;;;;;;;;;8.30;99.90;;;;;;5061097;28;20052;-79
2022/11/22 11:54:37;;;;;;;3.63;2.22;;;8.00;99.90;;;;;;5060207;28;20800;-80
2022/11/22 11:57:06;;;;;;;3.58;1.83;;;8.10;99.90;;;;;;5060855;28;20048;-80
2022/11/22 11:59:38;;;;;;;6.53;2.08;;;8.10;99.90;;;;;;5070396;28;20060;-80
2022/11/22 12:02:12;;;;;;;2.92;2.60;;;8.10;99.90;;;;;;5060062;28;20084;-80
2022/11/22 12:05:13;;;;;;;3.58;2.30;;;8.10;99.90;;;;;;5060004;28;20060;-79
2022/11/22 12:07:44;;;;;;;3.90;2.00;;;8.20;99.90;;;;;;5046649;28;20106;-80
2022/11/22 12:10:30;;;;;;;6.78;3.63;;;8.30;99.90;;;;;;5059750;28;20053;-79
2022/11/22 12:13:35;;;;;;;3.33;1.92;;;8.20;99.90;;;;;;5060326;28;20055;-79
2022/11/22 12:16:36;;;;;;;5.15;2.75;;;8.20;99.90;;;;;;5059081;28;20056;-78
2022/11/22 12:19:28;;;;;;;7.97;2.45;;;8.30;99.90;;;;;;5051766;28;20056;-78
2022/11/22 12:22:11;;;;;;;9.80;2.33;;;8.30;99.90;;;;;;5049305;28;20047;-78
2022/11/22 12:24:42;;;;;;;7.30;2.63;;;8.30;99.90;;;;;;5059961;28;20060;-78
2022/11/22 12:27:10;;;;;;;2.85;2.17;;;8.30;99.90;;;;;;5049734;28;20515;-78
2022/11/22 12:29:39;;;;;;;3.75;1.92;;;8.40;99.90;;;;;;5059439;28;20045;-78
2022/11/22 12:32:39;;;;;;;4.13;2.17;;;8.50;99.90;;;;;;5060363;28;20500;-78
2022/11/22 12:35:11;;;;;;;4.07;2.13;;;8.40;99.90;;;;;;5059372;28;20052;-78
2022/11/22 12:37:49;;;;;;;4.22;2.25;;;8.40;99.90;;;;;;5072002;28;20048;-78
2022/11/22 12:40:24;;;;;;;4.68;1.77;;;8.40;99.90;;;;;;5067323;28;20041;-78
2022/11/22 12:43:01;;;;;;;6.88;2.15;;;8.40;99.90;;;;;;5059725;28;20057;-78
2022/11/22 12:45:29;;;;;;;5.30;2.22;;;8.50;99.90;;;;;;5076282;28;20044;-78
2022/11/22 12:47:59;;;;;;;2.20;1.77;;;8.50;99.90;;;;;;5063718;28;20052;-78
2022/11/22 12:50:40;;;;;;;4.07;2.55;;;8.50;99.90;;;;;;5065979;28;20053;-78
2022/11/22 12:53:12;;;;;;;4.15;1.70;;;8.60;99.90;;;;;;5051639;28;20038;-78
2022/11/22 12:55:56;;;;;;;4.10;1.60;;;8.60;99.90;;;;;;5060828;28;20177;-78
2022/11/22 12:58:52;;;;;;;3.28;1.83;;;8.60;99.90;;;;;;5060812;28;20117;-78
2022/11/22 13:01:35;;;;;;;6.57;1.80;;;8.60;99.90;;;;;;5063215;28;20109;-78
2022/11/22 13:04:05;;;;;;;;;;;8.60;99.90;;;;;;5054252;28;20048;-77
2022/11/22 13:06:52;;;;;;;3.60;1.90;;;8.50;99.90;;;;;;5102283;27;19928;-78
2022/11/22 13:09:33;;;;;;;8.93;2.35;;;8.50;99.90;;;;;;5069476;28;20079;-78
2022/11/22 13:12:05;;;;;;;3.95;1.70;;;8.50;99.90;;;;;;5063547;28;20090;-78
2022/11/22 13:14:54;;;;;;;3.33;1.60;;;8.50;99.90;;;;;;5049750;28;20048;-78